sensor_id;sensor_type;location;lat;lon;timestamp;P1;durP1;ratioP1;P2;durP2;ratioP2
3343;SDS011;1685;53.104;8.228;2023-11-19T00:00:31;42.10;;;21.83;;
3343;SDS011;1685;53.104;8.228;2023-11-19T00:02:58;38.23;;;20.90;;
3343;SDS011;1685;53.104;8.228;2023-11-19T00:05:26;43.33;;;22.50;;
3343;SDS011;1685;53.104;8.228;2023-11-19T00:07:54;44.60;;;22.97;;
3343;SDS011;1685;53.104;8.228;2023-11-19T00:10:22;43.37;;;22.40;;
3343;SDS011;1685;53.104;8.228;2023-11-19T00:12:49;44.60;;;23.00;;
3343;SDS011;1685;53.104;8.228;2023-11-19T00:15:17;48.93;;;24.27;;
3343;SDS011;1685;53.104;8.228;2023-11-19T00:17:45;43.13;;;22.50;;
3343;SDS011;1685;53.104;8.228;2023-11-19T00:20:12;45.73;;;25.10;;
3343;SDS011;1685;53.104;8.228;2023-11-19T00:22:39;45.57;;;22.20;;
3343;SDS011;1685;53.104;8.228;2023-11-19T00:25:07;39.90;;;20.77;;
3343;SDS011;1685;53.104;8.228;2023-11-19T00:27:36;39.93;;;22.00;;
3343;SDS011;1685;53.104;8.228;2023-11-19T00:30:03;45.83;;;21.53;;
3343;SDS011;1685;53.104;8.228;2023-11-19T00:32:31;42.07;;;21.47;;
3343;SDS011;1685;53.104;8.228;2023-11-19T00:34:58;38.40;;;21.23;;
3343;SDS011;1685;53.104;8.228;2023-11-19T00:37:24;39.53;;;22.13;;
3343;SDS011;1685;53.104;8.228;2023-11-19T00:39:51;43.43;;;22.50;;
3343;SDS011;1685;53.104;8.228;2023-11-19T00:42:18;37.83;;;21.20;;
3343;SDS011;1685;53.104;8.228;2023-11-19T00:44:47;41.40;;;22.33;;
3343;SDS011;1685;53.104;8.228;2023-11-19T00:47:14;39.50;;;21.53;;
3343;SDS011;1685;53.104;8.228;2023-11-19T00:49:41;39.73;;;22.03;;
3343;SDS011;1685;53.104;8.228;2023-11-19T00:52:08;42.37;;;21.87;;
3343;SDS011;1685;53.104;8.228;2023-11-19T00:54:35;39.23;;;21.10;;
3343;SDS011;1685;53.104;8.228;2023-11-19T00:57:02;44.53;;;21.53;;
3343;SDS011;1685;53.104;8.228;2023-11-19T00:59:30;40.73;;;21.53;;
3343;SDS011;1685;53.104;8.228;2023-11-19T01:01:59;40.53;;;20.20;;
3343;SDS011;1685;53.104;8.228;2023-11-19T01:04:28;41.73;;;20.17;;
3343;SDS011;1685;53.104;8.228;2023-11-19T01:06:55;39.37;;;19.50;;
3343;SDS011;1685;53.104;8.228;2023-11-19T01:09:22;32.20;;;17.77;;
3343;SDS011;1685;53.104;8.228;2023-11-19T01:11:49;34.00;;;17.47;;
3343;SDS011;1685;53.104;8.228;2023-11-19T01:14:16;33.33;;;18.03;;
3343;SDS011;1685;53.104;8.228;2023-11-19T01:16:43;31.67;;;17.93;;
3343;SDS011;1685;53.104;8.228;2023-11-19T01:19:12;32.90;;;19.03;;
3343;SDS011;1685;53.104;8.228;2023-11-19T01:21:38;35.93;;;17.97;;
3343;SDS011;1685;53.104;8.228;2023-11-19T01:24:06;40.43;;;19.23;;
3343;SDS011;1685;53.104;8.228;2023-11-19T01:26:35;42.60;;;19.97;;
3343;SDS011;1685;53.104;8.228;2023-11-19T01:29:02;38.60;;;20.63;;
3343;SDS011;1685;53.104;8.228;2023-11-19T01:31:29;38.57;;;20.40;;
3343;SDS011;1685;53.104;8.228;2023-11-19T01:33:59;46.43;;;20.80;;
3343;SDS011;1685;53.104;8.228;2023-11-19T01:36:27;39.40;;;21.40;;
3343;SDS011;1685;53.104;8.228;2023-11-19T01:38:54;44.30;;;21.13;;
3343;SDS011;1685;53.104;8.228;2023-11-19T01:41:21;41.33;;;19.33;;
3343;SDS011;1685;53.104;8.228;2023-11-19T01:43:50;40.97;;;22.53;;
3343;SDS011;1685;53.104;8.228;2023-11-19T01:46:17;37.37;;;20.33;;
3343;SDS011;1685;53.104;8.228;2023-11-19T01:48:44;40.67;;;20.00;;
3343;SDS011;1685;53.104;8.228;2023-11-19T01:51:12;37.67;;;20.67;;
3343;SDS011;1685;53.104;8.228;2023-11-19T01:53:43;43.73;;;21.03;;
3343;SDS011;1685;53.104;8.228;2023-11-19T01:56:11;43.50;;;21.63;;
3343;SDS011;1685;53.104;8.228;2023-11-19T01:58:40;41.33;;;20.90;;
3343;SDS011;1685;53.104;8.228;2023-11-19T02:01:09;42.57;;;21.23;;
3343;SDS011;1685;53.104;8.228;2023-11-19T02:03:37;48.60;;;20.73;;
3343;SDS011;1685;53.104;8.228;2023-11-19T02:06:06;39.10;;;19.33;;
3343;SDS011;1685;53.104;8.228;2023-11-19T02:08:35;56.37;;;21.80;;
3343;SDS011;1685;53.104;8.228;2023-11-19T02:11:03;48.23;;;20.90;;
3343;SDS011;1685;53.104;8.228;2023-11-19T02:13:32;50.57;;;20.60;;
3343;SDS011;1685;53.104;8.228;2023-11-19T02:16:01;48.60;;;20.77;;
3343;SDS011;1685;53.104;8.228;2023-11-19T02:18:28;53.97;;;22.10;;
3343;SDS011;1685;53.104;8.228;2023-11-19T02:20:55;54.40;;;22.70;;
3343;SDS011;1685;53.104;8.228;2023-11-19T02:23:22;44.87;;;21.23;;
3343;SDS011;1685;53.104;8.228;2023-11-19T02:25:54;47.20;;;21.10;;
3343;SDS011;1685;53.104;8.228;2023-11-19T02:28:31;46.47;;;21.60;;
3343;SDS011;1685;53.104;8.228;2023-11-19T02:30:59;52.63;;;22.50;;
3343;SDS011;1685;53.104;8.228;2023-11-19T02:33:26;58.90;;;23.00;;
3343;SDS011;1685;53.104;8.228;2023-11-19T02:35:54;59.80;;;23.23;;
3343;SDS011;1685;53.104;8.228;2023-11-19T02:38:21;59.37;;;23.03;;
3343;SDS011;1685;53.104;8.228;2023-11-19T02:40:48;61.13;;;22.63;;
3343;SDS011;1685;53.104;8.228;2023-11-19T02:43:15;49.47;;;21.97;;
3343;SDS011;1685;53.104;8.228;2023-11-19T02:45:44;52.07;;;20.60;;
3343;SDS011;1685;53.104;8.228;2023-11-19T02:48:11;54.80;;;20.73;;
3343;SDS011;1685;53.104;8.228;2023-11-19T02:50:39;48.60;;;20.07;;
3343;SDS011;1685;53.104;8.228;2023-11-19T02:53:06;46.90;;;20.57;;
3343;SDS011;1685;53.104;8.228;2023-11-19T02:55:33;61.50;;;22.00;;
3343;SDS011;1685;53.104;8.228;2023-11-19T02:58:03;52.80;;;20.63;;
3343;SDS011;1685;53.104;8.228;2023-11-19T03:00:46;61.40;;;22.23;;
3343;SDS011;1685;53.104;8.228;2023-11-19T03:03:19;55.37;;;20.33;;
3343;SDS011;1685;53.104;8.228;2023-11-19T03:05:47;56.00;;;21.87;;
3343;SDS011;1685;53.104;8.228;2023-11-19T03:08:15;61.93;;;23.23;;
3343;SDS011;1685;53.104;8.228;2023-11-19T03:10:42;54.70;;;20.97;;
3343;SDS011;1685;53.104;8.228;2023-11-19T03:13:10;68.73;;;21.70;;
3343;SDS011;1685;53.104;8.228;2023-11-19T03:15:39;56.67;;;20.50;;
3343;SDS011;1685;53.104;8.228;2023-11-19T03:18:07;61.77;;;21.50;;
3343;SDS011;1685;53.104;8.228;2023-11-19T03:20:34;48.67;;;20.37;;
3343;SDS011;1685;53.104;8.228;2023-11-19T03:23:01;62.50;;;20.93;;
3343;SDS011;1685;53.104;8.228;2023-11-19T03:25:30;64.17;;;21.70;;
3343;SDS011;1685;53.104;8.228;2023-11-19T03:27:59;49.00;;;20.83;;
3343;SDS011;1685;53.104;8.228;2023-11-19T03:30:27;54.70;;;22.30;;
3343;SDS011;1685;53.104;8.228;2023-11-19T03:32:54;59.30;;;21.40;;
3343;SDS011;1685;53.104;8.228;2023-11-19T03:35:22;62.63;;;20.87;;
3343;SDS011;1685;53.104;8.228;2023-11-19T03:37:49;66.80;;;23.60;;
3343;SDS011;1685;53.104;8.228;2023-11-19T03:40:17;47.43;;;20.07;;
3343;SDS011;1685;53.104;8.228;2023-11-19T03:42:45;54.43;;;20.70;;
3343;SDS011;1685;53.104;8.228;2023-11-19T03:45:12;49.37;;;20.63;;
3343;SDS011;1685;53.104;8.228;2023-11-19T03:47:40;49.70;;;19.53;;
3343;SDS011;1685;53.104;8.228;2023-11-19T03:50:08;62.30;;;19.07;;
3343;SDS011;1685;53.104;8.228;2023-11-19T03:52:36;51.63;;;18.80;;
3343;SDS011;1685;53.104;8.228;2023-11-19T03:55:03;69.90;;;19.00;;
3343;SDS011;1685;53.104;8.228;2023-11-19T03:57:30;54.30;;;19.30;;
3343;SDS011;1685;53.104;8.228;2023-11-19T03:59:57;66.00;;;18.70;;
3343;SDS011;1685;53.104;8.228;2023-11-19T04:02:25;69.27;;;20.90;;
3343;SDS011;1685;53.104;8.228;2023-11-19T04:04:53;53.07;;;18.50;;
3343;SDS011;1685;53.104;8.228;2023-11-19T04:07:21;59.03;;;20.60;;
3343;SDS011;1685;53.104;8.228;2023-11-19T04:09:49;52.97;;;18.03;;
3343;SDS011;1685;53.104;8.228;2023-11-19T04:12:16;74.57;;;19.50;;
3343;SDS011;1685;53.104;8.228;2023-11-19T04:14:43;56.73;;;19.23;;
3343;SDS011;1685;53.104;8.228;2023-11-19T04:17:10;54.87;;;18.30;;
3343;SDS011;1685;53.104;8.228;2023-11-19T04:19:37;54.03;;;19.33;;
3343;SDS011;1685;53.104;8.228;2023-11-19T04:22:06;82.27;;;18.50;;
3343;SDS011;1685;53.104;8.228;2023-11-19T04:24:33;75.37;;;20.00;;
3343;SDS011;1685;53.104;8.228;2023-11-19T04:27:02;50.93;;;17.13;;
3343;SDS011;1685;53.104;8.228;2023-11-19T04:29:31;53.00;;;16.40;;
3343;SDS011;1685;53.104;8.228;2023-11-19T04:31:59;77.50;;;18.60;;
3343;SDS011;1685;53.104;8.228;2023-11-19T04:34:26;59.03;;;17.83;;
3343;SDS011;1685;53.104;8.228;2023-11-19T04:36:53;53.67;;;17.30;;
3343;SDS011;1685;53.104;8.228;2023-11-19T04:39:20;72.87;;;17.70;;
3343;SDS011;1685;53.104;8.228;2023-11-19T04:41:47;68.80;;;15.80;;
3343;SDS011;1685;53.104;8.228;2023-11-19T04:44:16;62.43;;;18.00;;
3343;SDS011;1685;53.104;8.228;2023-11-19T04:46:43;60.50;;;16.27;;
3343;SDS011;1685;53.104;8.228;2023-11-19T04:49:10;73.17;;;17.70;;
3343;SDS011;1685;53.104;8.228;2023-11-19T04:51:38;49.70;;;16.87;;
3343;SDS011;1685;53.104;8.228;2023-11-19T04:54:06;53.40;;;18.03;;
3343;SDS011;1685;53.104;8.228;2023-11-19T04:56:33;52.67;;;14.83;;
3343;SDS011;1685;53.104;8.228;2023-11-19T04:59:01;56.57;;;16.13;;
3343;SDS011;1685;53.104;8.228;2023-11-19T05:01:30;68.13;;;16.00;;
3343;SDS011;1685;53.104;8.228;2023-11-19T05:03:56;56.83;;;14.03;;
3343;SDS011;1685;53.104;8.228;2023-11-19T05:06:25;52.07;;;14.37;;
3343;SDS011;1685;53.104;8.228;2023-11-19T05:08:53;65.20;;;15.53;;
3343;SDS011;1685;53.104;8.228;2023-11-19T05:11:20;52.27;;;13.73;;
3343;SDS011;1685;53.104;8.228;2023-11-19T05:13:47;42.93;;;13.03;;
3343;SDS011;1685;53.104;8.228;2023-11-19T05:16:15;57.07;;;13.67;;
3343;SDS011;1685;53.104;8.228;2023-11-19T05:18:44;58.47;;;13.40;;
3343;SDS011;1685;53.104;8.228;2023-11-19T05:21:10;47.50;;;12.27;;
3343;SDS011;1685;53.104;8.228;2023-11-19T05:23:38;44.87;;;11.60;;
3343;SDS011;1685;53.104;8.228;2023-11-19T05:26:06;43.77;;;11.50;;
3343;SDS011;1685;53.104;8.228;2023-11-19T05:28:34;40.40;;;11.33;;
3343;SDS011;1685;53.104;8.228;2023-11-19T05:31:01;60.13;;;10.80;;
3343;SDS011;1685;53.104;8.228;2023-11-19T05:33:28;64.23;;;10.73;;
3343;SDS011;1685;53.104;8.228;2023-11-19T05:35:56;55.50;;;11.70;;
3343;SDS011;1685;53.104;8.228;2023-11-19T05:38:23;45.10;;;10.30;;
3343;SDS011;1685;53.104;8.228;2023-11-19T05:40:50;50.03;;;10.30;;
3343;SDS011;1685;53.104;8.228;2023-11-19T05:43:17;44.00;;;8.57;;
3343;SDS011;1685;53.104;8.228;2023-11-19T05:45:44;75.47;;;11.90;;
3343;SDS011;1685;53.104;8.228;2023-11-19T05:48:11;48.67;;;10.20;;
3343;SDS011;1685;53.104;8.228;2023-11-19T05:50:38;59.50;;;10.57;;
3343;SDS011;1685;53.104;8.228;2023-11-19T05:53:07;66.33;;;10.93;;
3343;SDS011;1685;53.104;8.228;2023-11-19T05:55:35;45.30;;;9.90;;
3343;SDS011;1685;53.104;8.228;2023-11-19T05:58:09;79.60;;;12.07;;
3343;SDS011;1685;53.104;8.228;2023-11-19T06:00:37;60.93;;;12.43;;
3343;SDS011;1685;53.104;8.228;2023-11-19T06:03:04;52.87;;;9.70;;
3343;SDS011;1685;53.104;8.228;2023-11-19T06:05:31;49.07;;;10.07;;
3343;SDS011;1685;53.104;8.228;2023-11-19T06:07:58;54.80;;;8.93;;
3343;SDS011;1685;53.104;8.228;2023-11-19T06:10:27;57.43;;;10.50;;
3343;SDS011;1685;53.104;8.228;2023-11-19T06:12:56;60.13;;;10.07;;
3343;SDS011;1685;53.104;8.228;2023-11-19T06:15:24;42.10;;;8.00;;
3343;SDS011;1685;53.104;8.228;2023-11-19T06:17:52;63.77;;;8.70;;
3343;SDS011;1685;53.104;8.228;2023-11-19T06:20:19;60.07;;;10.10;;
3343;SDS011;1685;53.104;8.228;2023-11-19T06:22:46;55.70;;;9.40;;
3343;SDS011;1685;53.104;8.228;2023-11-19T06:25:14;54.73;;;9.20;;
3343;SDS011;1685;53.104;8.228;2023-11-19T06:27:42;63.57;;;9.00;;
3343;SDS011;1685;53.104;8.228;2023-11-19T06:30:10;49.33;;;9.07;;
3343;SDS011;1685;53.104;8.228;2023-11-19T06:32:37;72.30;;;9.30;;
3343;SDS011;1685;53.104;8.228;2023-11-19T06:35:05;63.30;;;9.80;;
3343;SDS011;1685;53.104;8.228;2023-11-19T06:37:32;67.80;;;8.63;;
3343;SDS011;1685;53.104;8.228;2023-11-19T06:39:59;48.33;;;7.40;;
3343;SDS011;1685;53.104;8.228;2023-11-19T06:42:26;59.90;;;9.60;;
3343;SDS011;1685;53.104;8.228;2023-11-19T06:44:55;80.73;;;8.70;;
3343;SDS011;1685;53.104;8.228;2023-11-19T06:47:22;51.03;;;7.97;;
3343;SDS011;1685;53.104;8.228;2023-11-19T06:49:49;62.43;;;8.83;;
3343;SDS011;1685;53.104;8.228;2023-11-19T06:52:17;55.67;;;9.63;;
3343;SDS011;1685;53.104;8.228;2023-11-19T06:54:44;53.27;;;9.87;;
3343;SDS011;1685;53.104;8.228;2023-11-19T06:57:11;76.60;;;10.63;;
3343;SDS011;1685;53.104;8.228;2023-11-19T06:59:38;62.20;;;9.03;;
3343;SDS011;1685;53.104;8.228;2023-11-19T07:02:07;59.73;;;8.13;;
3343;SDS011;1685;53.104;8.228;2023-11-19T07:04:34;68.53;;;9.00;;
3343;SDS011;1685;53.104;8.228;2023-11-19T07:07:01;48.47;;;8.10;;
3343;SDS011;1685;53.104;8.228;2023-11-19T07:09:28;48.47;;;8.50;;
3343;SDS011;1685;53.104;8.228;2023-11-19T07:11:55;55.10;;;8.63;;
3343;SDS011;1685;53.104;8.228;2023-11-19T07:14:22;50.10;;;8.50;;
3343;SDS011;1685;53.104;8.228;2023-11-19T07:16:49;55.87;;;7.80;;
3343;SDS011;1685;53.104;8.228;2023-11-19T07:19:18;64.50;;;8.83;;
3343;SDS011;1685;53.104;8.228;2023-11-19T07:21:44;67.77;;;7.90;;
3343;SDS011;1685;53.104;8.228;2023-11-19T07:24:11;58.67;;;8.50;;
3343;SDS011;1685;53.104;8.228;2023-11-19T07:26:40;50.30;;;7.23;;
3343;SDS011;1685;53.104;8.228;2023-11-19T07:29:08;75.67;;;8.27;;
3343;SDS011;1685;53.104;8.228;2023-11-19T07:31:35;43.70;;;6.90;;
3343;SDS011;1685;53.104;8.228;2023-11-19T07:34:03;38.60;;;7.60;;
3343;SDS011;1685;53.104;8.228;2023-11-19T07:36:31;41.70;;;6.00;;
3343;SDS011;1685;53.104;8.228;2023-11-19T07:38:58;34.40;;;6.50;;
3343;SDS011;1685;53.104;8.228;2023-11-19T07:41:25;45.13;;;8.77;;
3343;SDS011;1685;53.104;8.228;2023-11-19T07:43:53;61.07;;;9.40;;
3343;SDS011;1685;53.104;8.228;2023-11-19T07:46:20;46.17;;;7.50;;
3343;SDS011;1685;53.104;8.228;2023-11-19T07:48:47;55.93;;;7.23;;
3343;SDS011;1685;53.104;8.228;2023-11-19T07:51:14;41.23;;;6.43;;
3343;SDS011;1685;53.104;8.228;2023-11-19T07:53:43;50.90;;;7.33;;
3343;SDS011;1685;53.104;8.228;2023-11-19T07:56:10;38.50;;;6.90;;
3343;SDS011;1685;53.104;8.228;2023-11-19T07:58:37;41.40;;;8.33;;
3343;SDS011;1685;53.104;8.228;2023-11-19T08:01:05;54.60;;;7.80;;
3343;SDS011;1685;53.104;8.228;2023-11-19T08:03:32;42.50;;;7.77;;
3343;SDS011;1685;53.104;8.228;2023-11-19T08:05:59;31.97;;;5.83;;
3343;SDS011;1685;53.104;8.228;2023-11-19T08:08:27;43.57;;;6.63;;
3343;SDS011;1685;53.104;8.228;2023-11-19T08:10:56;50.87;;;8.27;;
3343;SDS011;1685;53.104;8.228;2023-11-19T08:13:23;46.97;;;8.23;;
3343;SDS011;1685;53.104;8.228;2023-11-19T08:15:50;45.43;;;8.40;;
3343;SDS011;1685;53.104;8.228;2023-11-19T08:18:18;44.80;;;6.80;;
3343;SDS011;1685;53.104;8.228;2023-11-19T08:20:45;47.27;;;7.20;;
3343;SDS011;1685;53.104;8.228;2023-11-19T08:23:17;49.33;;;8.60;;
3343;SDS011;1685;53.104;8.228;2023-11-19T08:25:44;40.97;;;6.60;;
3343;SDS011;1685;53.104;8.228;2023-11-19T08:28:13;29.40;;;5.53;;
3343;SDS011;1685;53.104;8.228;2023-11-19T08:30:40;54.70;;;7.67;;
3343;SDS011;1685;53.104;8.228;2023-11-19T08:33:07;45.60;;;9.40;;
3343;SDS011;1685;53.104;8.228;2023-11-19T08:35:34;30.17;;;6.03;;
3343;SDS011;1685;53.104;8.228;2023-11-19T08:38:01;39.03;;;6.03;;
3343;SDS011;1685;53.104;8.228;2023-11-19T08:40:28;24.67;;;6.20;;
3343;SDS011;1685;53.104;8.228;2023-11-19T08:42:55;27.03;;;6.33;;
3343;SDS011;1685;53.104;8.228;2023-11-19T08:45:24;47.23;;;7.10;;
3343;SDS011;1685;53.104;8.228;2023-11-19T08:47:51;39.40;;;6.37;;
3343;SDS011;1685;53.104;8.228;2023-11-19T08:50:18;26.60;;;5.93;;
3343;SDS011;1685;53.104;8.228;2023-11-19T08:52:45;37.90;;;6.90;;
3343;SDS011;1685;53.104;8.228;2023-11-19T08:55:12;37.63;;;6.30;;
3343;SDS011;1685;53.104;8.228;2023-11-19T08:57:39;50.63;;;7.27;;
3343;SDS011;1685;53.104;8.228;2023-11-19T09:00:07;48.30;;;8.20;;
3343;SDS011;1685;53.104;8.228;2023-11-19T09:02:35;44.57;;;6.80;;
3343;SDS011;1685;53.104;8.228;2023-11-19T09:05:03;43.17;;;5.90;;
3343;SDS011;1685;53.104;8.228;2023-11-19T09:07:30;40.60;;;7.80;;
3343;SDS011;1685;53.104;8.228;2023-11-19T09:09:57;33.37;;;6.43;;
3343;SDS011;1685;53.104;8.228;2023-11-19T09:12:24;36.23;;;7.20;;
3343;SDS011;1685;53.104;8.228;2023-11-19T09:14:51;34.33;;;6.87;;
3343;SDS011;1685;53.104;8.228;2023-11-19T09:17:19;41.83;;;8.10;;
3343;SDS011;1685;53.104;8.228;2023-11-19T09:19:47;36.47;;;7.33;;
3343;SDS011;1685;53.104;8.228;2023-11-19T09:22:15;36.87;;;5.70;;
3343;SDS011;1685;53.104;8.228;2023-11-19T09:24:42;32.43;;;6.00;;
3343;SDS011;1685;53.104;8.228;2023-11-19T09:27:10;38.73;;;6.60;;
3343;SDS011;1685;53.104;8.228;2023-11-19T09:29:37;48.30;;;8.73;;
3343;SDS011;1685;53.104;8.228;2023-11-19T09:32:05;42.03;;;6.67;;
3343;SDS011;1685;53.104;8.228;2023-11-19T09:34:32;26.47;;;5.40;;
3343;SDS011;1685;53.104;8.228;2023-11-19T09:37:01;40.97;;;7.30;;
3343;SDS011;1685;53.104;8.228;2023-11-19T09:39:28;35.97;;;7.17;;
3343;SDS011;1685;53.104;8.228;2023-11-19T09:41:55;28.17;;;5.90;;
3343;SDS011;1685;53.104;8.228;2023-11-19T09:44:22;37.57;;;6.50;;
3343;SDS011;1685;53.104;8.228;2023-11-19T09:46:50;34.03;;;6.10;;
3343;SDS011;1685;53.104;8.228;2023-11-19T09:49:17;28.67;;;5.50;;
3343;SDS011;1685;53.104;8.228;2023-11-19T09:51:48;32.30;;;7.80;;
3343;SDS011;1685;53.104;8.228;2023-11-19T09:54:17;32.63;;;6.30;;
3343;SDS011;1685;53.104;8.228;2023-11-19T09:56:44;55.07;;;7.67;;
3343;SDS011;1685;53.104;8.228;2023-11-19T09:59:11;50.50;;;9.80;;
3343;SDS011;1685;53.104;8.228;2023-11-19T10:01:38;41.37;;;8.37;;
3343;SDS011;1685;53.104;8.228;2023-11-19T10:04:05;38.30;;;7.97;;
3343;SDS011;1685;53.104;8.228;2023-11-19T10:06:33;46.00;;;7.97;;
3343;SDS011;1685;53.104;8.228;2023-11-19T10:09:00;58.63;;;7.37;;
3343;SDS011;1685;53.104;8.228;2023-11-19T10:11:31;56.57;;;8.00;;
3343;SDS011;1685;53.104;8.228;2023-11-19T10:13:57;38.83;;;8.10;;
3343;SDS011;1685;53.104;8.228;2023-11-19T10:16:28;50.47;;;7.00;;
3343;SDS011;1685;53.104;8.228;2023-11-19T10:18:56;54.27;;;6.93;;
3343;SDS011;1685;53.104;8.228;2023-11-19T10:21:23;40.47;;;6.43;;
3343;SDS011;1685;53.104;8.228;2023-11-19T10:23:53;46.27;;;6.97;;
3343;SDS011;1685;53.104;8.228;2023-11-19T10:26:22;43.20;;;9.30;;
3343;SDS011;1685;53.104;8.228;2023-11-19T10:28:50;49.83;;;7.13;;
3343;SDS011;1685;53.104;8.228;2023-11-19T10:31:19;56.87;;;7.70;;
3343;SDS011;1685;53.104;8.228;2023-11-19T10:33:49;54.50;;;6.63;;
3343;SDS011;1685;53.104;8.228;2023-11-19T10:36:16;39.50;;;6.40;;
3343;SDS011;1685;53.104;8.228;2023-11-19T10:38:51;41.17;;;7.17;;
3343;SDS011;1685;53.104;8.228;2023-11-19T10:41:28;38.43;;;7.10;;
3343;SDS011;1685;53.104;8.228;2023-11-19T10:43:57;38.80;;;7.10;;
3343;SDS011;1685;53.104;8.228;2023-11-19T10:46:35;46.20;;;6.90;;
3343;SDS011;1685;53.104;8.228;2023-11-19T10:49:02;71.93;;;25.90;;
3343;SDS011;1685;53.104;8.228;2023-11-19T10:51:31;50.83;;;7.43;;
3343;SDS011;1685;53.104;8.228;2023-11-19T10:53:59;44.40;;;8.80;;
3343;SDS011;1685;53.104;8.228;2023-11-19T10:56:31;42.20;;;7.67;;
3343;SDS011;1685;53.104;8.228;2023-11-19T10:59:00;55.90;;;8.00;;
3343;SDS011;1685;53.104;8.228;2023-11-19T11:01:32;34.80;;;6.23;;
3343;SDS011;1685;53.104;8.228;2023-11-19T11:04:05;45.90;;;7.70;;
3343;SDS011;1685;53.104;8.228;2023-11-19T11:06:37;50.87;;;6.00;;
3343;SDS011;1685;53.104;8.228;2023-11-19T11:09:05;52.90;;;7.20;;
3343;SDS011;1685;53.104;8.228;2023-11-19T11:11:32;47.37;;;7.87;;
3343;SDS011;1685;53.104;8.228;2023-11-19T11:14:01;49.60;;;7.17;;
3343;SDS011;1685;53.104;8.228;2023-11-19T11:16:29;41.27;;;7.37;;
3343;SDS011;1685;53.104;8.228;2023-11-19T11:18:57;40.50;;;9.37;;
3343;SDS011;1685;53.104;8.228;2023-11-19T11:21:24;47.30;;;6.90;;
3343;SDS011;1685;53.104;8.228;2023-11-19T11:24:00;57.70;;;7.60;;
3343;SDS011;1685;53.104;8.228;2023-11-19T11:26:48;62.77;;;6.97;;
3343;SDS011;1685;53.104;8.228;2023-11-19T11:29:34;41.80;;;6.97;;
3343;SDS011;1685;53.104;8.228;2023-11-19T11:32:08;41.53;;;7.50;;
3343;SDS011;1685;53.104;8.228;2023-11-19T11:34:58;45.60;;;7.93;;
3343;SDS011;1685;53.104;8.228;2023-11-19T11:37:39;39.90;;;6.40;;
3343;SDS011;1685;53.104;8.228;2023-11-19T11:40:13;47.00;;;7.47;;
3343;SDS011;1685;53.104;8.228;2023-11-19T11:42:41;39.70;;;6.97;;
3343;SDS011;1685;53.104;8.228;2023-11-19T11:45:10;40.77;;;6.13;;
3343;SDS011;1685;53.104;8.228;2023-11-19T11:50:32;38.00;;;6.43;;
3343;SDS011;1685;53.104;8.228;2023-11-19T11:53:13;52.13;;;7.67;;
3343;SDS011;1685;53.104;8.228;2023-11-19T11:55:51;33.27;;;4.97;;
3343;SDS011;1685;53.104;8.228;2023-11-19T11:58:20;28.27;;;6.13;;
3343;SDS011;1685;53.104;8.228;2023-11-19T12:00:48;35.57;;;5.43;;
3343;SDS011;1685;53.104;8.228;2023-11-19T12:03:19;42.57;;;7.07;;
3343;SDS011;1685;53.104;8.228;2023-11-19T12:05:48;28.53;;;6.27;;
3343;SDS011;1685;53.104;8.228;2023-11-19T12:08:18;40.00;;;5.80;;
3343;SDS011;1685;53.104;8.228;2023-11-19T12:10:46;26.63;;;6.60;;
3343;SDS011;1685;53.104;8.228;2023-11-19T12:13:16;29.77;;;6.23;;
3343;SDS011;1685;53.104;8.228;2023-11-19T12:18:38;21.07;;;4.53;;
3343;SDS011;1685;53.104;8.228;2023-11-19T12:21:06;19.60;;;4.60;;
3343;SDS011;1685;53.104;8.228;2023-11-19T12:23:35;29.50;;;5.40;;
3343;SDS011;1685;53.104;8.228;2023-11-19T12:29:02;19.50;;;4.23;;
3343;SDS011;1685;53.104;8.228;2023-11-19T12:31:34;19.83;;;4.37;;
3343;SDS011;1685;53.104;8.228;2023-11-19T12:34:07;17.77;;;3.67;;
3343;SDS011;1685;53.104;8.228;2023-11-19T12:36:36;13.40;;;4.43;;
3343;SDS011;1685;53.104;8.228;2023-11-19T12:39:04;20.47;;;4.40;;
3343;SDS011;1685;53.104;8.228;2023-11-19T12:41:31;17.40;;;4.33;;
3343;SDS011;1685;53.104;8.228;2023-11-19T12:44:08;6.67;;;2.60;;
3343;SDS011;1685;53.104;8.228;2023-11-19T12:46:38;15.83;;;3.20;;
3343;SDS011;1685;53.104;8.228;2023-11-19T12:49:05;7.33;;;2.60;;
3343;SDS011;1685;53.104;8.228;2023-11-19T12:51:32;14.73;;;5.40;;
3343;SDS011;1685;53.104;8.228;2023-11-19T12:53:59;10.63;;;3.70;;
3343;SDS011;1685;53.104;8.228;2023-11-19T12:56:26;10.00;;;3.33;;
3343;SDS011;1685;53.104;8.228;2023-11-19T12:58:54;8.03;;;3.50;;
3343;SDS011;1685;53.104;8.228;2023-11-19T13:01:22;12.47;;;3.03;;
3343;SDS011;1685;53.104;8.228;2023-11-19T13:03:50;10.73;;;4.03;;
3343;SDS011;1685;53.104;8.228;2023-11-19T13:06:17;11.23;;;4.43;;
3343;SDS011;1685;53.104;8.228;2023-11-19T13:08:46;10.50;;;2.83;;
3343;SDS011;1685;53.104;8.228;2023-11-19T13:11:29;11.83;;;4.20;;
3343;SDS011;1685;53.104;8.228;2023-11-19T13:13:57;13.10;;;4.30;;
3343;SDS011;1685;53.104;8.228;2023-11-19T13:16:25;12.23;;;3.20;;
3343;SDS011;1685;53.104;8.228;2023-11-19T13:18:55;14.00;;;6.07;;
3343;SDS011;1685;53.104;8.228;2023-11-19T13:21:22;11.73;;;4.00;;
3343;SDS011;1685;53.104;8.228;2023-11-19T13:23:49;16.47;;;3.73;;
3343;SDS011;1685;53.104;8.228;2023-11-19T13:26:16;11.97;;;3.80;;
3343;SDS011;1685;53.104;8.228;2023-11-19T13:28:43;17.37;;;3.40;;
3343;SDS011;1685;53.104;8.228;2023-11-19T13:31:11;12.90;;;3.90;;
3343;SDS011;1685;53.104;8.228;2023-11-19T13:33:38;13.30;;;3.23;;
3343;SDS011;1685;53.104;8.228;2023-11-19T13:36:07;27.27;;;4.03;;
3343;SDS011;1685;53.104;8.228;2023-11-19T13:38:34;25.47;;;4.63;;
3343;SDS011;1685;53.104;8.228;2023-11-19T13:41:01;17.33;;;4.50;;
3343;SDS011;1685;53.104;8.228;2023-11-19T13:43:29;28.57;;;4.57;;
3343;SDS011;1685;53.104;8.228;2023-11-19T13:45:56;22.20;;;4.87;;
3343;SDS011;1685;53.104;8.228;2023-11-19T13:48:23;46.83;;;6.10;;
3343;SDS011;1685;53.104;8.228;2023-11-19T13:50:51;28.60;;;5.43;;
3343;SDS011;1685;53.104;8.228;2023-11-19T13:53:20;46.70;;;7.53;;
3343;SDS011;1685;53.104;8.228;2023-11-19T13:55:47;37.80;;;5.43;;
3343;SDS011;1685;53.104;8.228;2023-11-19T13:58:14;26.90;;;4.37;;
3343;SDS011;1685;53.104;8.228;2023-11-19T14:00:41;35.20;;;6.77;;
3343;SDS011;1685;53.104;8.228;2023-11-19T14:03:08;25.87;;;5.93;;
3343;SDS011;1685;53.104;8.228;2023-11-19T14:05:36;29.33;;;4.90;;
3343;SDS011;1685;53.104;8.228;2023-11-19T14:08:03;38.43;;;6.13;;
3343;SDS011;1685;53.104;8.228;2023-11-19T14:10:37;29.73;;;5.63;;
3343;SDS011;1685;53.104;8.228;2023-11-19T14:13:05;34.87;;;5.40;;
3343;SDS011;1685;53.104;8.228;2023-11-19T14:15:32;26.73;;;4.53;;
3343;SDS011;1685;53.104;8.228;2023-11-19T14:18:00;25.60;;;4.87;;
3343;SDS011;1685;53.104;8.228;2023-11-19T14:20:27;21.97;;;3.87;;
3343;SDS011;1685;53.104;8.228;2023-11-19T14:22:55;20.60;;;3.67;;
3343;SDS011;1685;53.104;8.228;2023-11-19T14:25:22;35.97;;;4.37;;
3343;SDS011;1685;53.104;8.228;2023-11-19T14:27:51;15.40;;;4.33;;
3343;SDS011;1685;53.104;8.228;2023-11-19T14:30:17;17.43;;;3.33;;
3343;SDS011;1685;53.104;8.228;2023-11-19T14:32:44;15.23;;;3.73;;
3343;SDS011;1685;53.104;8.228;2023-11-19T14:35:13;26.73;;;4.27;;
3343;SDS011;1685;53.104;8.228;2023-11-19T14:37:40;24.67;;;5.50;;
3343;SDS011;1685;53.104;8.228;2023-11-19T14:40:07;16.67;;;4.40;;
3343;SDS011;1685;53.104;8.228;2023-11-19T14:42:36;21.97;;;4.27;;
3343;SDS011;1685;53.104;8.228;2023-11-19T14:45:06;14.33;;;4.30;;
3343;SDS011;1685;53.104;8.228;2023-11-19T14:47:36;20.90;;;3.63;;
3343;SDS011;1685;53.104;8.228;2023-11-19T14:50:04;22.20;;;5.37;;
3343;SDS011;1685;53.104;8.228;2023-11-19T14:52:32;32.60;;;4.27;;
3343;SDS011;1685;53.104;8.228;2023-11-19T14:54:59;19.27;;;4.73;;
3343;SDS011;1685;53.104;8.228;2023-11-19T14:57:27;32.43;;;5.93;;
3343;SDS011;1685;53.104;8.228;2023-11-19T14:59:54;23.20;;;4.90;;
3343;SDS011;1685;53.104;8.228;2023-11-19T15:02:23;29.73;;;5.73;;
3343;SDS011;1685;53.104;8.228;2023-11-19T15:04:50;27.43;;;5.77;;
3343;SDS011;1685;53.104;8.228;2023-11-19T15:07:17;22.13;;;5.50;;
3343;SDS011;1685;53.104;8.228;2023-11-19T15:09:46;27.57;;;5.80;;